sensor_id;sensor_type;location;lat;lon;timestamp;pressure;altitude;pressure_sealevel;temperature;humidity
12799;BME280;19250;42.646;26.980;2023-01-29T00:01:52;99121.63;;;4.30;100.00
12799;BME280;19250;42.646;26.980;2023-01-29T00:04:20;99165.41;;;3.98;100.00
12799;BME280;19250;42.646;26.980;2023-01-29T00:06:48;99162.41;;;3.55;100.00
12799;BME280;19250;42.646;26.980;2023-01-29T00:09:15;99167.94;;;3.99;100.00
12799;BME280;19250;42.646;26.980;2023-01-29T00:11:44;99138.22;;;3.97;100.00
12799;BME280;19250;42.646;26.980;2023-01-29T00:14:11;99164.88;;;4.62;100.00
12799;BME280;19250;42.646;26.980;2023-01-29T00:16:39;99163.13;;;4.74;100.00
12799;BME280;19250;42.646;26.980;2023-01-29T00:19:06;99165.91;;;4.03;100.00
12799;BME280;19250;42.646;26.980;2023-01-29T00:21:33;99165.28;;;3.52;100.00
12799;BME280;19250;42.646;26.980;2023-01-29T00:24:00;99162.00;;;3.84;100.00
12799;BME280;19250;42.646;26.980;2023-01-29T00:26:28;99128.91;;;3.80;100.00
12799;BME280;19250;42.646;26.980;2023-01-29T00:28:56;99174.22;;;4.44;100.00
12799;BME280;19250;42.646;26.980;2023-01-29T00:31:25;99171.19;;;4.37;100.00
12799;BME280;19250;42.646;26.980;2023-01-29T00:33:52;99134.06;;;3.82;100.00
12799;BME280;19250;42.646;26.980;2023-01-29T00:36:20;99138.31;;;3.72;100.00
12799;BME280;19250;42.646;26.980;2023-01-29T00:38:53;99182.09;;;3.38;100.00
12799;BME280;19250;42.646;26.980;2023-01-29T00:41:24;99187.91;;;3.30;100.00
12799;BME280;19250;42.646;26.980;2023-01-29T00:44:11;99182.81;;;3.40;100.00
12799;BME280;19250;42.646;26.980;2023-01-29T00:46:56;99187.69;;;3.34;100.00
12799;BME280;19250;42.646;26.980;2023-01-29T00:49:23;99131.38;;;2.98;100.00
12799;BME280;19250;42.646;26.980;2023-01-29T00:51:50;99187.03;;;3.43;100.00
12799;BME280;19250;42.646;26.980;2023-01-29T00:54:31;99192.56;;;3.14;100.00
12799;BME280;19250;42.646;26.980;2023-01-29T00:56:58;99191.69;;;3.39;100.00
12799;BME280;19250;42.646;26.980;2023-01-29T00:59:27;99195.53;;;3.10;100.00
12799;BME280;19250;42.646;26.980;2023-01-29T01:01:54;99189.09;;;3.26;100.00
12799;BME280;19250;42.646;26.980;2023-01-29T01:04:38;99194.19;;;3.41;100.00
12799;BME280;19250;42.646;26.980;2023-01-29T01:07:06;99195.75;;;3.56;100.00
12799;BME280;19250;42.646;26.980;2023-01-29T01:09:34;99194.19;;;3.41;100.00
12799;BME280;19250;42.646;26.980;2023-01-29T01:12:19;99196.19;;;3.50;100.00
12799;BME280;19250;42.646;26.980;2023-01-29T01:14:48;99206.47;;;4.13;100.00
12799;BME280;19250;42.646;26.980;2023-01-29T01:17:15;99209.13;;;4.13;100.00
12799;BME280;19250;42.646;26.980;2023-01-29T01:19:42;99209.75;;;4.16;100.00
12799;BME280;19250;42.646;26.980;2023-01-29T01:22:09;99206.47;;;4.36;100.00
12799;BME280;19250;42.646;26.980;2023-01-29T01:24:37;99213.88;;;4.31;100.00
12799;BME280;19250;42.646;26.980;2023-01-29T01:27:05;99216.91;;;4.84;100.00
12799;BME280;19250;42.646;26.980;2023-01-29T01:29:32;99217.94;;;4.24;100.00
12799;BME280;19250;42.646;26.980;2023-01-29T01:32:01;99225.03;;;4.00;100.00
12799;BME280;19250;42.646;26.980;2023-01-29T01:34:28;99220.75;;;4.10;100.00
12799;BME280;19250;42.646;26.980;2023-01-29T01:36:55;99227.66;;;4.00;100.00
12799;BME280;19250;42.646;26.980;2023-01-29T01:39:23;99231.47;;;4.20;100.00
12799;BME280;19250;42.646;26.980;2023-01-29T01:41:52;99227.38;;;4.16;100.00
12799;BME280;19250;42.646;26.980;2023-01-29T01:44:51;99229.53;;;3.74;100.00
12799;BME280;19250;42.646;26.980;2023-01-29T01:47:25;99227.59;;;3.89;100.00
12799;BME280;19250;42.646;26.980;2023-01-29T01:49:57;99230.34;;;4.35;100.00
12799;BME280;19250;42.646;26.980;2023-01-29T01:52:28;99230.41;;;4.22;100.00
12799;BME280;19250;42.646;26.980;2023-01-29T01:54:57;99236.31;;;4.02;100.00
12799;BME280;19250;42.646;26.980;2023-01-29T01:57:26;99195.03;;;3.54;100.00
12799;BME280;19250;42.646;26.980;2023-01-29T01:59:58;99239.19;;;3.63;100.00
12799;BME280;19250;42.646;26.980;2023-01-29T02:02:37;99242.97;;;3.59;100.00
12799;BME280;19250;42.646;26.980;2023-01-29T02:05:23;99236.28;;;3.78;100.00
12799;BME280;19250;42.646;26.980;2023-01-29T02:08:08;99244.22;;;4.02;100.00
12799;BME280;19250;42.646;26.980;2023-01-29T02:10:53;99254.50;;;3.94;100.00
12799;BME280;19250;42.646;26.980;2023-01-29T02:13:21;99257.69;;;3.74;100.00
12799;BME280;19250;42.646;26.980;2023-01-29T02:15:49;99255.28;;;3.71;100.00
12799;BME280;19250;42.646;26.980;2023-01-29T02:18:20;99259.50;;;3.73;100.00
12799;BME280;19250;42.646;26.980;2023-01-29T02:20:59;99258.66;;;4.09;100.00
12799;BME280;19250;42.646;26.980;2023-01-29T02:23:55;99259.41;;;3.99;100.00
12799;BME280;19250;42.646;26.980;2023-01-29T02:26:47;99264.94;;;3.83;100.00
12799;BME280;19250;42.646;26.980;2023-01-29T02:29:22;99268.22;;;4.10;100.00
12799;BME280;19250;42.646;26.980;2023-01-29T02:32:01;99268.59;;;4.29;98.69
12799;BME280;19250;42.646;26.980;2023-01-29T02:34:40;99243.72;;;4.21;96.94
12799;BME280;19250;42.646;26.980;2023-01-29T02:37:34;99274.63;;;3.95;97.46
12799;BME280;19250;42.646;26.980;2023-01-29T02:40:10;99261.75;;;4.03;96.47
12799;BME280;19250;42.646;26.980;2023-01-29T02:42:45;99284.50;;;4.04;95.74
12799;BME280;19250;42.646;26.980;2023-01-29T02:45:18;99268.22;;;4.10;94.94
12799;BME280;19250;42.646;26.980;2023-01-29T02:47:54;99273.41;;;4.12;95.09
12799;BME280;19250;42.646;26.980;2023-01-29T02:50:27;99234.06;;;4.09;95.17
12799;BME280;19250;42.646;26.980;2023-01-29T02:53:01;99270.56;;;4.15;94.61
12799;BME280;19250;42.646;26.980;2023-01-29T02:55:34;99277.63;;;3.78;94.29
12799;BME280;19250;42.646;26.980;2023-01-29T02:58:10;99282.31;;;3.62;95.83
12799;BME280;19250;42.646;26.980;2023-01-29T03:00:43;99275.91;;;3.28;98.49
12799;BME280;19250;42.646;26.980;2023-01-29T03:03:15;99282.88;;;3.42;97.56
12799;BME280;19250;42.646;26.980;2023-01-29T03:05:48;99284.28;;;3.71;96.92
12799;BME280;19250;42.646;26.980;2023-01-29T03:08:23;99281.56;;;3.60;97.33
12799;BME280;19250;42.646;26.980;2023-01-29T03:11:03;99202.06;;;3.04;95.65
12799;BME280;19250;42.646;26.980;2023-01-29T03:13:37;99285.38;;;3.30;97.52
12799;BME280;19250;42.646;26.980;2023-01-29T03:16:12;99278.13;;;3.21;97.99
12799;BME280;19250;42.646;26.980;2023-01-29T03:18:42;99274.94;;;2.79;100.00
12799;BME280;19250;42.646;26.980;2023-01-29T03:21:17;99280.59;;;2.60;100.00
12799;BME280;19250;42.646;26.980;2023-01-29T03:24:05;99269.13;;;2.73;100.00
12799;BME280;19250;42.646;26.980;2023-01-29T03:26:51;99279.69;;;3.37;100.00
12799;BME280;19250;42.646;26.980;2023-01-29T03:29:37;99287.41;;;3.14;99.28
12799;BME280;19250;42.646;26.980;2023-01-29T03:32:27;99284.94;;;3.62;97.82
12799;BME280;19250;42.646;26.980;2023-01-29T03:35:00;99286.44;;;3.28;97.66
12799;BME280;19250;42.646;26.980;2023-01-29T03:37:32;99287.94;;;3.45;98.04
12799;BME280;19250;42.646;26.980;2023-01-29T03:40:01;99291.63;;;3.29;97.98
12799;BME280;19250;42.646;26.980;2023-01-29T03:42:43;99288.03;;;3.30;98.19
12799;BME280;19250;42.646;26.980;2023-01-29T03:45:18;99285.50;;;3.16;97.84
12799;BME280;19250;42.646;26.980;2023-01-29T03:47:53;99286.75;;;3.49;97.57
12799;BME280;19250;42.646;26.980;2023-01-29T03:50:33;99284.03;;;3.38;96.73
12799;BME280;19250;42.646;26.980;2023-01-29T03:53:08;99286.31;;;3.55;97.29
12799;BME280;19250;42.646;26.980;2023-01-29T03:55:43;99204.41;;;2.96;96.66
12799;BME280;19250;42.646;26.980;2023-01-29T03:58:24;99287.75;;;3.84;95.62
12799;BME280;19250;42.646;26.980;2023-01-29T04:00:57;99291.53;;;3.80;94.47
12799;BME280;19250;42.646;26.980;2023-01-29T04:03:32;99287.34;;;3.65;96.13
12799;BME280;19250;42.646;26.980;2023-01-29T04:06:05;99300.22;;;3.82;93.97
12799;BME280;19250;42.646;26.980;2023-01-29T04:08:39;99290.44;;;3.59;94.38
12799;BME280;19250;42.646;26.980;2023-01-29T04:11:13;99286.41;;;3.66;94.78
12799;BME280;19250;42.646;26.980;2023-01-29T04:13:41;99300.31;;;3.80;94.79
12799;BME280;19250;42.646;26.980;2023-01-29T04:16:13;99285.63;;;3.76;94.12
12799;BME280;19250;42.646;26.980;2023-01-29T04:18:45;99301.66;;;4.22;92.90
12799;BME280;19250;42.646;26.980;2023-01-29T04:21:13;99303.72;;;4.06;92.90
12799;BME280;19250;42.646;26.980;2023-01-29T04:23:41;99302.13;;;4.04;92.80
12799;BME280;19250;42.646;26.980;2023-01-29T04:26:31;99222.66;;;3.48;92.29
12799;BME280;19250;42.646;26.980;2023-01-29T04:29:13;99309.47;;;3.88;93.40
12799;BME280;19250;42.646;26.980;2023-01-29T04:31:48;99307.78;;;3.87;94.38
12799;BME280;19250;42.646;26.980;2023-01-29T04:34:22;99306.59;;;4.03;93.20
12799;BME280;19250;42.646;26.980;2023-01-29T04:37:00;99319.41;;;3.84;93.15
12799;BME280;19250;42.646;26.980;2023-01-29T04:39:41;99317.50;;;3.73;93.89
12799;BME280;19250;42.646;26.980;2023-01-29T04:42:14;99315.00;;;4.08;93.32
12799;BME280;19250;42.646;26.980;2023-01-29T04:44:57;99312.53;;;3.94;92.51
12799;BME280;19250;42.646;26.980;2023-01-29T04:47:31;99317.94;;;4.04;93.04
12799;BME280;19250;42.646;26.980;2023-01-29T04:50:09;99315.00;;;4.08;92.77
12799;BME280;19250;42.646;26.980;2023-01-29T04:52:45;99312.78;;;3.66;93.56
12799;BME280;19250;42.646;26.980;2023-01-29T04:55:19;99318.09;;;3.90;93.87
12799;BME280;19250;42.646;26.980;2023-01-29T04:57:51;99231.38;;;3.49;93.02
12799;BME280;19250;42.646;26.980;2023-01-29T05:00:25;99319.59;;;3.94;93.35
12799;BME280;19250;42.646;26.980;2023-01-29T05:02:53;99325.41;;;3.61;94.29
12799;BME280;19250;42.646;26.980;2023-01-29T05:05:23;99234.94;;;2.99;96.31
12799;BME280;19250;42.646;26.980;2023-01-29T05:07:51;99245.47;;;2.86;96.25
12799;BME280;19250;42.646;26.980;2023-01-29T05:10:20;99297.63;;;3.32;96.36
12799;BME280;19250;42.646;26.980;2023-01-29T05:12:51;99319.22;;;3.11;98.45
12799;BME280;19250;42.646;26.980;2023-01-29T05:15:24;99343.25;;;3.19;99.25
12799;BME280;19250;42.646;26.980;2023-01-29T05:17:53;99339.16;;;3.41;98.54
12799;BME280;19250;42.646;26.980;2023-01-29T05:20:30;99340.09;;;3.65;98.08
12799;BME280;19250;42.646;26.980;2023-01-29T05:22:58;99345.59;;;4.11;96.15
12799;BME280;19250;42.646;26.980;2023-01-29T05:25:28;99344.84;;;4.45;94.14
12799;BME280;19250;42.646;26.980;2023-01-29T05:27:56;99347.34;;;4.23;92.84
12799;BME280;19250;42.646;26.980;2023-01-29T05:30:33;99339.78;;;4.18;93.56
12799;BME280;19250;42.646;26.980;2023-01-29T05:33:00;99324.88;;;3.94;93.73
12799;BME280;19250;42.646;26.980;2023-01-29T05:35:29;99348.78;;;4.16;93.49
12799;BME280;19250;42.646;26.980;2023-01-29T05:37:57;99347.09;;;4.38;93.03
12799;BME280;19250;42.646;26.980;2023-01-29T05:40:24;99347.03;;;4.27;92.71
12799;BME280;19250;42.646;26.980;2023-01-29T05:42:51;99353.41;;;4.12;93.40
12799;BME280;19250;42.646;26.980;2023-01-29T05:45:19;99347.91;;;3.79;95.11
12799;BME280;19250;42.646;26.980;2023-01-29T05:47:46;99357.16;;;3.97;94.61
12799;BME280;19250;42.646;26.980;2023-01-29T05:50:14;99357.72;;;4.13;94.53
12799;BME280;19250;42.646;26.980;2023-01-29T05:52:42;99360.56;;;4.47;92.63
12799;BME280;19250;42.646;26.980;2023-01-29T05:55:10;99344.00;;;4.45;91.90
12799;BME280;19250;42.646;26.980;2023-01-29T05:57:38;99378.28;;;4.81;91.45
12799;BME280;19250;42.646;26.980;2023-01-29T06:00:07;99380.53;;;4.98;90.38
12799;BME280;19250;42.646;26.980;2023-01-29T06:02:34;99386.91;;;5.07;89.38
12799;BME280;19250;42.646;26.980;2023-01-29T06:05:02;99382.78;;;4.68;90.30
12799;BME280;19250;42.646;26.980;2023-01-29T06:07:31;99387.84;;;4.94;90.52
12799;BME280;19250;42.646;26.980;2023-01-29T06:10:00;99395.19;;;5.02;89.48
12799;BME280;19250;42.646;26.980;2023-01-29T06:12:27;99401.47;;;5.12;88.63
12799;BME280;19250;42.646;26.980;2023-01-29T06:14:54;99403.47;;;4.98;88.98
12799;BME280;19250;42.646;26.980;2023-01-29T06:17:22;99399.94;;;4.50;91.07
12799;BME280;19250;42.646;26.980;2023-01-29T06:19:49;99403.84;;;4.57;90.48
12799;BME280;19250;42.646;26.980;2023-01-29T06:22:16;99405.50;;;4.70;90.14
12799;BME280;19250;42.646;26.980;2023-01-29T06:24:43;99403.41;;;4.63;90.58
12799;BME280;19250;42.646;26.980;2023-01-29T06:27:12;99410.94;;;4.44;91.14
12799;BME280;19250;42.646;26.980;2023-01-29T06:29:39;99418.22;;;4.53;91.31
12799;BME280;19250;42.646;26.980;2023-01-29T06:32:06;99404.41;;;4.00;93.03
12799;BME280;19250;42.646;26.980;2023-01-29T06:34:33;99331.66;;;3.72;93.33
12799;BME280;19250;42.646;26.980;2023-01-29T06:37:01;99413.50;;;4.45;93.66
12799;BME280;19250;42.646;26.980;2023-01-29T06:39:28;99406.25;;;4.60;92.42
12799;BME280;19250;42.646;26.980;2023-01-29T06:41:55;99409.63;;;4.13;94.26
12799;BME280;19250;42.646;26.980;2023-01-29T06:44:24;99414.69;;;4.28;94.95
12799;BME280;19250;42.646;26.980;2023-01-29T06:46:52;99414.47;;;4.31;94.28
12799;BME280;19250;42.646;26.980;2023-01-29T06:49:19;99409.63;;;4.25;95.12
12799;BME280;19250;42.646;26.980;2023-01-29T06:51:46;99417.94;;;4.68;94.21
12799;BME280;19250;42.646;26.980;2023-01-29T06:54:13;99413.28;;;4.48;94.57
12799;BME280;19250;42.646;26.980;2023-01-29T06:56:40;99409.88;;;5.17;93.30
12799;BME280;19250;42.646;26.980;2023-01-29T06:59:08;99412.03;;;5.47;89.89
12799;BME280;19250;42.646;26.980;2023-01-29T07:01:39;99337.88;;;4.44;90.08
12799;BME280;19250;42.646;26.980;2023-01-29T07:04:09;99363.97;;;5.07;91.74
12799;BME280;19250;42.646;26.980;2023-01-29T07:06:37;99420.44;;;5.87;88.37
12799;BME280;19250;42.646;26.980;2023-01-29T07:09:05;99420.09;;;5.57;86.00
12799;BME280;19250;42.646;26.980;2023-01-29T07:11:33;99428.16;;;5.90;85.64
12799;BME280;19250;42.646;26.980;2023-01-29T07:14:02;99422.63;;;6.26;85.39
12799;BME280;19250;42.646;26.980;2023-01-29T07:16:29;99424.53;;;6.24;86.23
12799;BME280;19250;42.646;26.980;2023-01-29T07:18:58;99418.44;;;6.67;83.61
12799;BME280;19250;42.646;26.980;2023-01-29T07:21:25;99423.34;;;6.93;81.83
12799;BME280;19250;42.646;26.980;2023-01-29T07:23:52;99280.16;;;6.09;80.69
12799;BME280;19250;42.646;26.980;2023-01-29T07:26:20;99436.97;;;6.89;81.31
12799;BME280;19250;42.646;26.980;2023-01-29T07:28:47;99426.34;;;6.89;81.68
12799;BME280;19250;42.646;26.980;2023-01-29T07:31:14;99434.88;;;6.38;84.35
12799;BME280;19250;42.646;26.980;2023-01-29T07:33:42;99442.22;;;6.13;84.92
12799;BME280;19250;42.646;26.980;2023-01-29T07:36:12;99435.84;;;6.26;85.56
12799;BME280;19250;42.646;26.980;2023-01-29T07:38:39;99440.06;;;6.29;85.41
12799;BME280;19250;42.646;26.980;2023-01-29T07:41:07;99448.84;;;6.18;86.09
12799;BME280;19250;42.646;26.980;2023-01-29T07:43:34;99441.38;;;6.34;85.34
12799;BME280;19250;42.646;26.980;2023-01-29T07:46:02;99452.13;;;6.33;85.03
12799;BME280;19250;42.646;26.980;2023-01-29T07:48:30;99454.84;;;6.09;85.55
12799;BME280;19250;42.646;26.980;2023-01-29T07:50:57;99450.34;;;5.76;86.36
12799;BME280;19250;42.646;26.980;2023-01-29T07:53:26;99446.19;;;6.18;86.27
12799;BME280;19250;42.646;26.980;2023-01-29T07:55:54;99450.03;;;6.36;85.63
12799;BME280;19250;42.646;26.980;2023-01-29T07:58:21;99452.09;;;6.44;84.02
12799;BME280;19250;42.646;26.980;2023-01-29T08:00:48;99452.81;;;6.01;85.39
12799;BME280;19250;42.646;26.980;2023-01-29T08:03:17;99455.22;;;6.16;85.49
12799;BME280;19250;42.646;26.980;2023-01-29T08:05:44;99462.31;;;6.15;85.50
12799;BME280;19250;42.646;26.980;2023-01-29T08:08:12;99457.41;;;6.33;84.20
12799;BME280;19250;42.646;26.980;2023-01-29T08:10:41;99461.72;;;6.34;83.49
12799;BME280;19250;42.646;26.980;2023-01-29T08:13:09;99457.97;;;6.36;83.26
12799;BME280;19250;42.646;26.980;2023-01-29T08:15:36;99471.44;;;5.89;85.63
12799;BME280;19250;42.646;26.980;2023-01-29T08:18:03;99470.03;;;5.61;87.38
12799;BME280;19250;42.646;26.980;2023-01-29T08:20:30;99475.56;;;6.26;85.29
12799;BME280;19250;42.646;26.980;2023-01-29T08:22:59;99473.28;;;6.66;83.83
12799;BME280;19250;42.646;26.980;2023-01-29T08:25:27;99478.13;;;7.04;81.40
12799;BME280;19250;42.646;26.980;2023-01-29T08:27:57;99440.63;;;5.88;84.91
12799;BME280;19250;42.646;26.980;2023-01-29T08:30:25;99478.06;;;6.61;84.29
12799;BME280;19250;42.646;26.980;2023-01-29T08:32:52;99472.22;;;4.49;90.41
12799;BME280;19250;42.646;26.980;2023-01-29T08:35:20;99478.88;;;4.42;93.87
12799;BME280;19250;42.646;26.980;2023-01-29T08:37:54;99434.34;;;4.61;91.97
12799;BME280;19250;42.646;26.980;2023-01-29T08:40:23;99477.06;;;5.49;90.38
12799;BME280;19250;42.646;26.980;2023-01-29T08:42:50;99479.66;;;5.38;90.58
12799;BME280;19250;42.646;26.980;2023-01-29T08:45:19;99476.13;;;5.85;90.38
12799;BME280;19250;42.646;26.980;2023-01-29T08:47:47;99480.09;;;5.91;87.94
12799;BME280;19250;42.646;26.980;2023-01-29T08:50:15;99478.22;;;6.26;86.22
12799;BME280;19250;42.646;26.980;2023-01-29T08:52:43;99473.16;;;6.34;84.25
12799;BME280;19250;42.646;26.980;2023-01-29T08:55:10;99481.22;;;6.66;82.71
12799;BME280;19250;42.646;26.980;2023-01-29T08:57:38;99484.59;;;6.24;84.78
12799;BME280;19250;42.646;26.980;2023-01-29T09:00:06;99484.50;;;6.47;84.30
12799;BME280;19250;42.646;26.980;2023-01-29T09:02:36;99487.59;;;6.75;82.10
12799;BME280;19250;42.646;26.980;2023-01-29T09:05:04;99494.09;;;6.37;83.28
12799;BME280;19250;42.646;26.980;2023-01-29T09:07:32;99490.00;;;6.33;84.15
12799;BME280;19250;42.646;26.980;2023-01-29T09:10:00;99496.28;;;6.32;84.26
12799;BME280;19250;42.646;26.980;2023-01-29T09:12:27;99487.34;;;6.33;82.87
12799;BME280;19250;42.646;26.980;2023-01-29T09:14:54;99487.84;;;6.38;82.34
12799;BME280;19250;42.646;26.980;2023-01-29T09:17:21;99490.69;;;5.56;85.24
12799;BME280;19250;42.646;26.980;2023-01-29T09:19:50;99476.81;;;4.94;89.09
12799;BME280;19250;42.646;26.980;2023-01-29T09:22:18;99476.63;;;5.67;88.25
12799;BME280;19250;42.646;26.980;2023-01-29T09:24:45;99480.13;;;6.13;86.74
12799;BME280;19250;42.646;26.980;2023-01-29T09:27:12;99479.72;;;5.49;87.20
12799;BME280;19250;42.646;26.980;2023-01-29T09:29:39;99477.69;;;5.29;88.58
12799;BME280;19250;42.646;26.980;2023-01-29T09:32:06;99475.56;;;5.69;87.28
12799;BME280;19250;42.646;26.980;2023-01-29T09:34:34;99466.19;;;6.11;85.35
12799;BME280;19250;42.646;26.980;2023-01-29T09:37:02;99468.41;;;5.93;86.09
12799;BME280;19250;42.646;26.980;2023-01-29T09:39:30;99471.25;;;5.79;86.71
12799;BME280;19250;42.646;26.980;2023-01-29T09:42:04;99463.75;;;5.97;87.49
12799;BME280;19250;42.646;26.980;2023-01-29T09:44:47;99471.69;;;5.86;85.69
12799;BME280;19250;42.646;26.980;2023-01-29T09:47:19;99470.09;;;5.48;88.27
12799;BME280;19250;42.646;26.980;2023-01-29T09:49:53;99468.78;;;5.89;88.15
12799;BME280;19250;42.646;26.980;2023-01-29T09:52:25;99458.25;;;6.11;87.02
12799;BME280;19250;42.646;26.980;2023-01-29T09:54:58;99462.56;;;6.12;86.74
12799;BME280;19250;42.646;26.980;2023-01-29T09:57:32;99459.16;;;6.77;85.28
12799;BME280;19250;42.646;26.980;2023-01-29T10:00:00;99458.09;;;5.56;86.57
12799;BME280;19250;42.646;26.980;2023-01-29T10:02:47;99452.91;;;6.00;88.65
12799;BME280;19250;42.646;26.980;2023-01-29T10:05:37;99453.91;;;6.10;88.26
12799;BME280;19250;42.646;26.980;2023-01-29T10:08:23;99446.19;;;6.63;85.75
12799;BME280;19250;42.646;26.980;2023-01-29T10:11:00;99455.91;;;4.91;91.21
12799;BME280;19250;42.646;26.980;2023-01-29T10:13:41;99451.13;;;4.96;92.03
12799;BME280;19250;42.646;26.980;2023-01-29T10:16:24;99457.09;;;5.45;90.68
12799;BME280;19250;42.646;26.980;2023-01-29T10:19:13;99446.72;;;5.08;92.00
12799;BME280;19250;42.646;26.980;2023-01-29T10:21:55;99448.94;;;4.90;94.25
12799;BME280;19250;42.646;26.980;2023-01-29T10:24:36;99453.66;;;5.56;92.30
12799;BME280;19250;42.646;26.980;2023-01-29T10:27:11;99448.88;;;5.72;90.89
12799;BME280;19250;42.646;26.980;2023-01-29T10:29:42;99449.66;;;5.85;89.97
12799;BME280;19250;42.646;26.980;2023-01-29T10:32:14;99444.56;;;5.82;89.54
12799;BME280;19250;42.646;26.980;2023-01-29T10:34:45;99452.13;;;5.65;89.35
12799;BME280;19250;42.646;26.980;2023-01-29T10:37:17;99439.69;;;4.72;91.87
12799;BME280;19250;42.646;26.980;2023-01-29T10:39:47;99429.06;;;4.24;96.91
12799;BME280;19250;42.646;26.980;2023-01-29T10:42:20;99427.78;;;4.30;96.33
12799;BME280;19250;42.646;26.980;2023-01-29T10:45:01;99424.00;;;5.05;94.55
12799;BME280;19250;42.646;26.980;2023-01-29T10:47:49;99420.75;;;5.25;92.91
12799;BME280;19250;42.646;26.980;2023-01-29T10:50:29;99421.59;;;5.72;90.90
12799;BME280;19250;42.646;26.980;2023-01-29T10:53:14;99411.69;;;5.63;91.71
12799;BME280;19250;42.646;26.980;2023-01-29T10:55:54;99423.91;;;5.41;93.05
12799;BME280;19250;42.646;26.980;2023-01-29T10:58:30;99418.28;;;5.11;92.72
12799;BME280;19250;42.646;26.980;2023-01-29T11:01:00;99412.59;;;5.28;92.94
12799;BME280;19250;42.646;26.980;2023-01-29T11:03:31;99412.72;;;5.03;94.05
12799;BME280;19250;42.646;26.980;2023-01-29T11:06:06;99388.22;;;5.01;93.85
12799;BME280;19250;42.646;26.980;2023-01-29T11:08:41;99412.41;;;5.54;92.23
12799;BME280;19250;42.646;26.980;2023-01-29T11:11:14;99422.56;;;5.82;90.76
12799;BME280;19250;42.646;26.980;2023-01-29T11:13:45;99408.09;;;5.64;90.49
12799;BME280;19250;42.646;26.980;2023-01-29T11:16:14;99417.63;;;5.77;90.55
12799;BME280;19250;42.646;26.980;2023-01-29T11:18:53;99409.16;;;5.96;89.20
12799;BME280;19250;42.646;26.980;2023-01-29T11:21:20;99409.25;;;6.06;88.88
12799;BME280;19250;42.646;26.980;2023-01-29T11:23:49;99404.09;;;5.93;87.92
12799;BME280;19250;42.646;26.980;2023-01-29T11:26:20;99397.59;;;6.08;88.53
12799;BME280;19250;42.646;26.980;2023-01-29T11:28:49;99397.88;;;5.70;88.49
12799;BME280;19250;42.646;26.980;2023-01-29T11:31:20;99390.81;;;4.90;92.71
12799;BME280;19250;42.646;26.980;2023-01-29T11:33:48;99392.38;;;4.69;94.40
12799;BME280;19250;42.646;26.980;2023-01-29T11:36:31;99404.22;;;5.11;93.83
12799;BME280;19250;42.646;26.980;2023-01-29T11:39:12;99379.22;;;5.49;91.35
12799;BME280;19250;42.646;26.980;2023-01-29T11:41:48;99375.03;;;5.58;91.11
12799;BME280;19250;42.646;26.980;2023-01-29T11:44:28;99383.81;;;5.59;91.81
12799;BME280;19250;42.646;26.980;2023-01-29T11:47:11;99375.22;;;5.90;90.55
12799;BME280;19250;42.646;26.980;2023-01-29T11:49:40;99380.97;;;6.06;89.36
12799;BME280;19250;42.646;26.980;2023-01-29T11:52:12;99386.47;;;6.36;87.37
12799;BME280;19250;42.646;26.980;2023-01-29T11:54:52;99383.13;;;6.34;87.72
12799;BME280;19250;42.646;26.980;2023-01-29T11:57:28;99376.41;;;6.08;88.00
12799;BME280;19250;42.646;26.980;2023-01-29T11:59:59;99386.16;;;6.30;87.03
12799;BME280;19250;42.646;26.980;2023-01-29T12:02:33;99390.25;;;6.23;87.53
12799;BME280;19250;42.646;26.980;2023-01-29T12:05:04;99377.97;;;5.99;87.90
12799;BME280;19250;42.646;26.980;2023-01-29T12:07:33;99382.34;;;5.55;90.00
12799;BME280;19250;42.646;26.980;2023-01-29T12:10:00;99380.22;;;5.82;89.83
12799;BME280;19250;42.646;26.980;2023-01-29T12:12:32;99277.16;;;5.36;89.17
12799;BME280;19250;42.646;26.980;2023-01-29T12:15:14;99384.84;;;6.13;88.47
12799;BME280;19250;42.646;26.980;2023-01-29T12:17:46;99382.75;;;6.28;88.16
12799;BME280;19250;42.646;26.980;2023-01-29T12:20:21;99376.88;;;5.80;88.08
12799;BME280;19250;42.646;26.980;2023-01-29T12:22:52;99377.88;;;5.90;88.00
12799;BME280;19250;42.646;26.980;2023-01-29T12:25:37;99379.94;;;5.52;89.54
12799;BME280;19250;42.646;26.980;2023-01-29T12:28:16;99378.94;;;4.95;91.57
12799;BME280;19250;42.646;26.980;2023-01-29T12:30:52;99376.53;;;5.27;92.94
12799;BME280;19250;42.646;26.980;2023-01-29T12:33:27;99282.06;;;5.07;91.75
12799;BME280;19250;42.646;26.980;2023-01-29T12:36:04;99378.56;;;5.81;89.94
12799;BME280;19250;42.646;26.980;2023-01-29T12:38:35;99382.53;;;6.09;89.32
12799;BME280;19250;42.646;26.980;2023-01-29T12:41:05;99381.22;;;6.03;88.75
12799;BME280;19250;42.646;26.980;2023-01-29T12:43:39;99372.53;;;5.68;88.73
12799;BME280;19250;42.646;26.980;2023-01-29T12:46:21;99380.19;;;5.48;90.32
12799;BME280;19250;42.646;26.980;2023-01-29T12:48:51;99383.91;;;5.46;90.86
12799;BME280;19250;42.646;26.980;2023-01-29T12:51:23;99387.00;;;5.29;91.32
12799;BME280;19250;42.646;26.980;2023-01-29T12:53:55;99386.41;;;5.47;90.62
12799;BME280;19250;42.646;26.980;2023-01-29T12:56:27;99362.94;;;5.21;91.55
12799;BME280;19250;42.646;26.980;2023-01-29T12:58:59;99387.47;;;5.23;92.59
12799;BME280;19250;42.646;26.980;2023-01-29T13:01:32;99386.16;;;5.28;91.27
12799;BME280;19250;42.646;26.980;2023-01-29T13:04:03;99385.59;;;5.01;92.81
12799;BME280;19250;42.646;26.980;2023-01-29T13:06:37;99391.72;;;5.47;90.97
12799;BME280;19250;42.646;26.980;2023-01-29T13:09:10;99386.25;;;5.84;89.34
12799;BME280;19250;42.646;26.980;2023-01-29T13:11:41;99385.28;;;5.85;89.75
12799;BME280;19250;42.646;26.980;2023-01-29T13:14:17;99390.75;;;5.48;89.90
12799;BME280;19250;42.646;26.980;2023-01-29T13:16:49;99396.81;;;5.62;89.50
12799;BME280;19250;42.646;26.980;2023-01-29T13:19:22;99334.16;;;4.47;90.90
12799;BME280;19250;42.646;26.980;2023-01-29T13:21:54;99401.25;;;5.15;91.76
12799;BME280;19250;42.646;26.980;2023-01-29T13:24:23;99384.28;;;5.53;90.17